createdAt,value
2023-04-18T00:00:49.672Z,3.00
2023-04-18T00:03:16.880Z,2.00
2023-04-18T00:06:05.986Z,2.25
2023-04-18T00:08:59.686Z,3.00
2023-04-18T00:11:45.450Z,2.00
2023-04-18T00:14:31.003Z,1.00
2023-04-18T00:17:17.964Z,1.00
2023-04-18T00:20:05.503Z,1.00
2023-04-18T00:22:32.547Z,2.00
2023-04-18T00:25:00.146Z,2.00
2023-04-18T00:27:27.064Z,3.00
2023-04-18T00:29:53.957Z,2.75
2023-04-18T00:32:20.896Z,3.25
2023-04-18T00:34:47.847Z,2.00
2023-04-18T00:37:14.790Z,2.00
2023-04-18T00:39:41.665Z,3.00
2023-04-18T00:42:08.560Z,1.25
2023-04-18T00:44:35.586Z,2.00
2023-04-18T00:47:02.603Z,2.75
2023-04-18T00:49:29.786Z,2.00
2023-04-18T00:51:57.283Z,2.25
2023-04-18T00:54:25.516Z,1.25
2023-04-18T00:56:52.437Z,1.75
2023-04-18T00:59:19.662Z,1.00
2023-04-18T01:01:47.335Z,1.25
2023-04-18T01:04:14.573Z,1.00
2023-04-18T01:06:56.979Z,2.00
2023-04-18T01:09:43.460Z,2.50
2023-04-18T01:12:28.654Z,2.00
2023-04-18T01:15:14.558Z,1.50
2023-04-18T01:18:02.511Z,3.00
2023-04-18T01:20:48.262Z,3.75
2023-04-18T01:23:16.160Z,3.00
2023-04-18T01:25:44.359Z,2.75
2023-04-18T01:28:13.994Z,2.50
2023-04-18T01:30:41.185Z,1.00
2023-04-18T01:33:08.093Z,3.00
2023-04-18T01:35:35.268Z,3.75
2023-04-18T01:38:02.428Z,4.00
2023-04-18T01:40:30.314Z,4.00
2023-04-18T01:42:57.478Z,3.50
2023-04-18T01:45:24.705Z,3.00
2023-04-18T01:47:51.689Z,3.00
2023-04-18T01:50:18.896Z,5.00
2023-04-18T01:52:47.236Z,5.00
2023-04-18T01:55:14.212Z,5.00
2023-04-18T01:57:41.310Z,3.25
2023-04-18T02:00:08.813Z,3.75
2023-04-18T02:02:35.988Z,4.00
2023-04-18T02:05:02.926Z,4.50
2023-04-18T02:07:29.907Z,2.50
2023-04-18T02:09:56.805Z,1.75
2023-04-18T02:12:23.978Z,4.75
2023-04-18T02:14:53.718Z,4.50
2023-04-18T02:17:21.788Z,4.00
2023-04-18T02:19:48.699Z,2.00
2023-04-18T02:22:15.589Z,2.75
2023-04-18T02:24:42.490Z,2.50
2023-04-18T02:27:10.648Z,3.00
2023-04-18T02:29:37.605Z,2.00
2023-04-18T02:32:04.722Z,3.00
2023-04-18T02:34:33.483Z,4.25
2023-04-18T02:37:00.594Z,3.75
2023-04-18T02:39:27.571Z,3.50
2023-04-18T02:41:54.524Z,3.00
2023-04-18T02:44:21.457Z,3.50
2023-04-18T02:46:48.400Z,3.50
2023-04-18T02:49:15.419Z,4.00
2023-04-18T02:51:42.329Z,2.00
2023-04-18T02:54:09.278Z,4.00
2023-04-18T02:56:40.181Z,3.00
2023-04-18T02:59:07.550Z,2.00
2023-04-18T03:01:34.801Z,4.00
2023-04-18T03:04:01.780Z,5.00
2023-04-18T03:06:28.676Z,4.50
2023-04-18T03:08:56.103Z,4.00
2023-04-18T03:11:23.156Z,5.00
2023-04-18T03:13:50.185Z,4.00
2023-04-18T03:16:17.237Z,4.50
2023-04-18T03:18:44.263Z,5.00
2023-04-18T03:21:11.954Z,5.00
2023-04-18T03:23:38.931Z,7.00
2023-04-18T03:26:09.319Z,3.50
2023-04-18T03:28:36.303Z,5.00
2023-04-18T03:31:03.280Z,7.00
2023-04-18T03:33:30.361Z,5.00
2023-04-18T03:35:57.311Z,3.00
2023-04-18T03:38:24.260Z,4.00
2023-04-18T03:40:51.277Z,5.00
2023-04-18T03:43:20.944Z,6.25
2023-04-18T03:45:48.410Z,4.00
2023-04-18T03:48:15.572Z,6.25
2023-04-18T03:50:42.518Z,6.50
2023-04-18T03:53:09.610Z,5.75
2023-04-18T03:55:36.706Z,6.50
2023-04-18T03:58:03.584Z,7.00
2023-04-18T04:00:30.675Z,8.00
2023-04-18T04:02:57.805Z,10.75
2023-04-18T04:05:25.123Z,7.25
2023-04-18T04:07:52.008Z,11.00
2023-04-18T04:10:18.964Z,9.00
2023-04-18T04:12:46.790Z,8.75
2023-04-18T04:15:13.734Z,9.00
2023-04-18T04:17:40.655Z,10.75
2023-04-18T04:20:08.273Z,13.50
2023-04-18T04:22:35.201Z,11.00
2023-04-18T04:25:02.913Z,10.75
2023-04-18T04:27:29.779Z,14.00
2023-04-18T04:29:56.754Z,10.00
2023-04-18T04:32:25.310Z,12.00
2023-04-18T04:34:52.468Z,11.00
2023-04-18T04:37:21.711Z,11.00
2023-04-18T04:39:48.771Z,13.00
2023-04-18T04:42:15.773Z,11.25
2023-04-18T04:44:43.152Z,12.00
2023-04-18T04:47:10.141Z,10.00
2023-04-18T04:49:37.072Z,14.00
2023-04-18T04:52:04.092Z,11.50
2023-04-18T04:54:30.957Z,11.75
2023-04-18T04:56:57.940Z,13.00
2023-04-18T04:59:24.825Z,15.00
2023-04-18T05:01:56.976Z,10.00
2023-04-18T05:04:25.632Z,12.00
2023-04-18T05:06:53.211Z,13.00
2023-04-18T05:09:20.537Z,14.00
2023-04-18T05:11:49.564Z,13.25
2023-04-18T05:14:17.835Z,15.00
2023-04-18T05:16:44.861Z,11.75
2023-04-18T05:19:11.773Z,11.25
2023-04-18T05:21:38.603Z,16.00
2023-04-18T05:24:05.604Z,12.50
2023-04-18T05:26:32.558Z,14.00
2023-04-18T05:28:59.513Z,12.00
2023-04-18T05:31:30.051Z,12.25
2023-04-18T05:33:57.105Z,15.00
2023-04-18T05:36:24.034Z,15.75
2023-04-18T05:38:51.149Z,15.75
2023-04-18T05:41:18.082Z,13.25
2023-04-18T05:43:54.203Z,14.75
2023-04-18T05:46:29.188Z,12.25
2023-04-18T05:48:57.141Z,14.00
2023-04-18T05:51:24.068Z,14.25
2023-04-18T05:53:50.931Z,15.50
2023-04-18T05:56:17.881Z,14.75
2023-04-18T05:58:48.035Z,14.75
2023-04-18T06:01:14.995Z,16.00
2023-04-18T06:03:42.522Z,13.00
2023-04-18T06:06:09.902Z,12.00
2023-04-18T06:08:38.997Z,13.00
2023-04-18T06:11:06.240Z,13.50
2023-04-18T06:13:33.209Z,13.00
2023-04-18T06:16:01.139Z,11.25
2023-04-18T06:18:28.023Z,13.00
2023-04-18T06:20:55.316Z,17.00
2023-04-18T06:23:22.188Z,15.25
2023-04-18T06:25:49.103Z,18.00
2023-04-18T06:28:16.398Z,16.75
2023-04-18T06:30:43.460Z,14.25
2023-04-18T06:33:11.306Z,13.25
2023-04-18T06:35:38.852Z,16.75
2023-04-18T06:38:05.758Z,17.25
2023-04-18T06:40:32.713Z,16.00
2023-04-18T06:42:59.655Z,10.75
2023-04-18T06:45:26.873Z,13.00
2023-04-18T06:47:53.893Z,17.00
2023-04-18T06:50:20.819Z,14.00
2023-04-18T06:52:47.708Z,13.75
2023-04-18T06:55:14.706Z,15.25
2023-04-18T06:57:42.663Z,15.25
2023-04-18T07:00:10.852Z,14.75
2023-04-18T07:02:39.318Z,13.00
2023-04-18T07:05:07.332Z,15.50
2023-04-18T07:07:35.063Z,13.75
2023-04-18T07:10:02.206Z,17.50
2023-04-18T07:12:29.242Z,13.75
2023-04-18T07:14:56.144Z,13.75
2023-04-18T07:17:23.040Z,14.75
2023-04-18T07:19:49.996Z,15.25
2023-04-18T07:22:16.951Z,14.25
2023-04-18T07:24:44.318Z,13.50
2023-04-18T07:27:11.251Z,14.00
2023-04-18T07:29:38.367Z,17.00
2023-04-18T07:32:06.900Z,14.00
2023-04-18T07:34:36.408Z,14.00
2023-04-18T07:37:03.914Z,12.75
2023-04-18T07:39:36.071Z,12.25
2023-04-18T07:42:06.417Z,10.25
2023-04-18T07:44:35.589Z,15.00
2023-04-18T07:47:03.828Z,14.25
2023-04-18T07:49:30.928Z,16.75
2023-04-18T07:51:58.048Z,14.75
2023-04-18T07:54:24.998Z,14.00
2023-04-18T07:56:51.918Z,14.75
2023-04-18T07:59:18.822Z,14.25
2023-04-18T08:01:46.007Z,4.00
2023-04-18T08:04:13.497Z,14.75
2023-04-18T08:06:40.919Z,14.00
2023-04-18T08:09:08.476Z,14.50
2023-04-18T08:11:35.441Z,13.75
2023-04-18T08:14:02.459Z,12.00
2023-04-18T08:16:29.412Z,13.75
2023-04-18T08:18:56.326Z,11.50
2023-04-18T08:21:23.199Z,12.25
2023-04-18T08:23:50.174Z,11.25
2023-04-18T08:26:17.083Z,13.50
2023-04-18T08:28:46.478Z,12.75
2023-04-18T08:31:15.278Z,10.50
2023-04-18T08:33:42.380Z,12.50
2023-04-18T08:36:09.870Z,14.00
2023-04-18T08:38:36.790Z,10.50
2023-04-18T08:41:03.731Z,13.25
2023-04-18T08:43:31.514Z,12.75
2023-04-18T08:46:00.359Z,12.00
2023-04-18T08:48:28.591Z,10.25
2023-04-18T08:50:59.429Z,10.25
2023-04-18T08:53:27.768Z,10.75
2023-04-18T08:56:01.000Z,9.25
2023-04-18T08:58:28.365Z,10.00
2023-04-18T09:00:55.609Z,10.75
2023-04-18T09:03:43.375Z,10.00
2023-04-18T09:06:14.183Z,7.50
2023-04-18T09:08:42.870Z,10.75
2023-04-18T09:11:29.106Z,11.50
2023-04-18T09:13:59.105Z,10.25
2023-04-18T09:16:27.962Z,8.25
2023-04-18T09:19:18.732Z,9.00
2023-04-18T09:21:49.091Z,8.00
2023-04-18T09:24:18.511Z,8.00
2023-04-18T09:26:45.419Z,9.75
2023-04-18T09:29:12.678Z,8.00
2023-04-18T09:32:02.384Z,9.50
2023-04-18T09:34:29.678Z,9.00
2023-04-18T09:37:26.335Z,9.00
2023-04-18T09:39:53.331Z,10.00
2023-04-18T09:42:21.302Z,9.00
2023-04-18T09:45:06.424Z,9.25
2023-04-18T09:47:37.787Z,9.00
2023-04-18T09:50:06.226Z,10.50
2023-04-18T09:52:38.223Z,8.00
2023-04-18T09:55:10.403Z,9.00
2023-04-18T09:57:41.759Z,7.00
2023-04-18T10:00:20.572Z,9.00
2023-04-18T10:03:09.010Z,10.00
2023-04-18T10:05:39.065Z,9.00
2023-04-18T10:08:07.076Z,10.50
2023-04-18T10:10:34.105Z,7.67
2023-04-18T10:13:03.347Z,10.50
2023-04-18T10:15:31.980Z,10.00
2023-04-18T10:18:05.396Z,10.50
2023-04-18T10:20:35.073Z,8.00
2023-04-18T10:23:31.190Z,9.00
2023-04-18T10:25:59.296Z,9.00
2023-04-18T10:28:27.798Z,9.00
2023-04-18T10:31:03.097Z,8.67
2023-04-18T10:33:41.990Z,8.00
2023-04-18T10:36:09.564Z,10.00
2023-04-18T10:38:45.534Z,8.00
2023-04-18T10:41:21.374Z,7.00
2023-04-18T10:44:09.829Z,9.00
2023-04-18T10:46:40.589Z,7.00
2023-04-18T10:49:16.729Z,8.75
2023-04-18T10:51:49.693Z,6.00
2023-04-18T10:54:36.097Z,8.00
2023-04-18T10:57:04.866Z,8.00
2023-04-18T10:59:33.631Z,8.25
2023-04-18T11:02:21.024Z,7.67
2023-04-18T11:04:55.421Z,8.00
2023-04-18T11:07:34.344Z,9.00
2023-04-18T11:10:09.062Z,6.00
2023-04-18T11:12:38.546Z,8.00
2023-04-18T11:15:14.599Z,8.75
2023-04-18T11:17:41.614Z,8.67
2023-04-18T11:20:11.579Z,8.00
2023-04-18T11:22:48.616Z,6.67
2023-04-18T11:25:16.877Z,7.00
2023-04-18T11:27:48.249Z,7.00
2023-04-18T11:30:15.864Z,7.67
2023-04-18T11:32:43.063Z,7.00
2023-04-18T11:35:12.438Z,5.00
2023-04-18T11:37:41.087Z,6.00
2023-04-18T11:40:12.384Z,9.00
2023-04-18T11:42:40.971Z,6.67
2023-04-18T11:45:12.068Z,6.00
2023-04-18T11:47:39.603Z,6.33
2023-04-18T11:50:08.497Z,8.00
2023-04-18T11:52:36.672Z,9.00
2023-04-18T11:55:15.104Z,9.00
2023-04-18T11:57:42.318Z,7.00
2023-04-18T12:00:12.559Z,6.33
2023-04-18T12:02:45.584Z,5.33
2023-04-18T12:05:24.239Z,4.67
2023-04-18T12:07:51.516Z,5.00
2023-04-18T12:10:24.695Z,4.67
2023-04-18T12:12:53.511Z,6.00
2023-04-18T12:15:22.044Z,6.00
2023-04-18T12:17:49.194Z,5.00
2023-04-18T12:20:16.371Z,6.00
2023-04-18T12:22:51.127Z,5.00
2023-04-18T12:25:26.244Z,5.67
2023-04-18T12:28:00.916Z,4.00
2023-04-18T12:30:31.197Z,7.00
2023-04-18T12:33:00.298Z,6.00
2023-04-18T12:35:28.308Z,4.33
2023-04-18T12:37:57.065Z,5.67
2023-04-18T12:40:26.497Z,6.00
2023-04-18T12:42:54.792Z,4.33
2023-04-18T12:45:23.140Z,5.00
2023-04-18T12:47:51.598Z,5.00
2023-04-18T12:50:20.949Z,5.00
2023-04-18T12:52:48.701Z,4.33
2023-04-18T12:55:16.032Z,5.00
2023-04-18T12:57:43.406Z,5.00
2023-04-18T13:00:11.799Z,5.00
2023-04-18T13:02:41.103Z,4.00
2023-04-18T13:05:10.194Z,5.00
2023-04-18T13:07:41.141Z,4.67
2023-04-18T13:10:09.949Z,4.00
2023-04-18T13:12:37.564Z,3.00
2023-04-18T13:15:05.747Z,5.00
2023-04-18T13:17:33.889Z,5.67
2023-04-18T13:20:01.073Z,5.00
2023-04-18T13:22:28.682Z,4.67
2023-04-18T13:24:55.632Z,5.33
2023-04-18T13:27:22.502Z,6.00
2023-04-18T13:29:49.491Z,5.67
2023-04-18T13:32:16.407Z,5.00
2023-04-18T13:34:46.038Z,4.67
2023-04-18T13:37:14.000Z,5.67
2023-04-18T13:39:44.599Z,4.67
2023-04-18T13:42:12.293Z,4.67
2023-04-18T13:44:39.991Z,6.67
2023-04-18T13:47:08.125Z,3.00
2023-04-18T13:49:36.589Z,4.00
2023-04-18T13:52:04.551Z,5.00
2023-04-18T15:33:55.832Z,5.00
2023-04-18T15:36:22.778Z,8.00
2023-04-18T15:38:49.659Z,9.00
2023-04-18T15:41:16.573Z,6.33
2023-04-18T15:43:45.612Z,7.00
2023-04-18T15:46:12.754Z,8.25
2023-04-18T15:48:40.291Z,6.00
2023-04-18T15:51:07.388Z,7.00
2023-04-18T15:53:34.314Z,6.00
2023-04-18T15:56:02.018Z,5.75
2023-04-18T15:58:30.486Z,8.00
2023-04-18T16:00:59.497Z,6.00
2023-04-18T16:03:26.628Z,8.00
2023-04-18T16:05:53.738Z,7.00
2023-04-18T16:08:20.722Z,6.75
2023-04-18T16:10:47.680Z,6.00
2023-04-18T16:13:14.647Z,8.75
2023-04-18T16:15:44.279Z,6.00
2023-04-18T16:18:11.373Z,4.00
2023-04-18T16:20:38.330Z,5.00
2023-04-18T16:23:05.267Z,8.75
2023-04-18T16:25:32.219Z,6.50
2023-04-18T16:27:59.109Z,9.50
2023-04-18T16:30:25.995Z,9.00
2023-04-18T16:32:53.193Z,5.75
2023-04-18T16:35:20.189Z,8.50
2023-04-18T16:37:47.478Z,7.50
2023-04-18T16:40:15.659Z,9.00
2023-04-18T16:42:42.563Z,7.00
2023-04-18T16:45:09.635Z,7.25
2023-04-18T16:47:36.987Z,7.25
2023-04-18T16:50:04.307Z,7.00
2023-04-18T16:52:31.569Z,7.00
2023-04-18T16:54:58.543Z,8.50
2023-04-18T16:57:25.505Z,8.00
2023-04-18T16:59:52.418Z,11.00
2023-04-18T17:02:19.456Z,9.50
2023-04-18T17:04:46.428Z,13.00
2023-04-18T17:07:13.504Z,10.75
2023-04-18T17:09:40.574Z,9.25
2023-04-18T17:12:07.665Z,14.00
2023-04-18T17:14:35.031Z,10.25
2023-04-18T17:17:01.923Z,10.00
2023-04-18T17:19:28.853Z,9.25
2023-04-18T17:21:55.919Z,11.00
2023-04-18T17:24:22.889Z,14.00
2023-04-18T17:26:49.975Z,11.75
2023-04-18T17:29:17.133Z,10.75
2023-04-18T17:31:44.061Z,14.25
2023-04-18T17:34:11.207Z,11.75
2023-04-18T17:36:38.226Z,10.50
2023-04-18T17:39:07.981Z,8.50
2023-04-18T17:41:39.072Z,10.25
2023-04-18T17:44:08.584Z,12.25
2023-04-18T17:46:35.589Z,11.75
2023-04-18T17:49:02.711Z,13.00
2023-04-18T17:51:29.621Z,12.00
2023-04-18T17:53:56.871Z,14.25
2023-04-18T17:56:23.798Z,12.00
2023-04-18T17:58:50.966Z,13.50
2023-04-18T18:01:19.890Z,13.50
2023-04-18T18:03:47.586Z,13.00
2023-04-18T18:06:15.979Z,11.25
2023-04-18T18:08:43.670Z,14.50
2023-04-18T18:11:11.017Z,13.00
2023-04-18T18:13:40.792Z,10.00
2023-04-18T18:16:07.976Z,8.25
2023-04-18T18:18:35.077Z,8.25
2023-04-18T18:21:02.084Z,10.00
2023-04-18T18:23:29.519Z,13.25
2023-04-18T18:25:56.440Z,15.75
2023-04-18T18:28:23.396Z,12.25
2023-04-18T18:30:50.384Z,13.75
2023-04-18T18:33:17.353Z,11.00
2023-04-18T18:35:44.290Z,10.00
2023-04-18T18:38:11.377Z,10.75
2023-04-18T18:40:38.309Z,14.00
2023-04-18T18:43:05.274Z,13.00
2023-04-18T18:45:32.183Z,14.25
2023-04-18T18:47:59.188Z,16.75
2023-04-18T18:50:26.224Z,16.25
2023-04-18T18:52:53.227Z,15.00
2023-04-18T18:55:20.135Z,16.00
2023-04-18T18:57:47.466Z,13.75
2023-04-18T19:00:14.993Z,9.75
2023-04-18T19:02:42.210Z,13.00
2023-04-18T19:05:09.746Z,14.00
2023-04-18T19:07:36.854Z,10.75
2023-04-18T19:10:04.809Z,13.25
2023-04-18T19:12:31.830Z,12.00
2023-04-18T19:14:58.794Z,11.50
2023-04-18T19:17:25.893Z,13.00
2023-04-18T19:19:53.582Z,12.50
2023-04-18T19:22:20.600Z,13.25
2023-04-18T19:24:47.718Z,13.25
2023-04-18T19:27:14.597Z,14.00
2023-04-18T19:29:41.663Z,11.00
2023-04-18T19:32:08.765Z,12.50
2023-04-18T19:34:36.360Z,10.50
2023-04-18T19:37:03.858Z,11.25
2023-04-18T19:39:30.977Z,10.00
2023-04-18T19:41:58.030Z,12.25
2023-04-18T19:44:25.043Z,13.00
2023-04-18T19:46:52.012Z,11.00
2023-04-18T19:49:18.945Z,13.25
2023-04-18T19:51:45.889Z,19.25
2023-04-18T19:54:13.033Z,21.00
2023-04-18T19:56:39.931Z,18.00
2023-04-18T19:59:07.564Z,14.00
2023-04-18T20:01:34.471Z,17.00
2023-04-18T20:04:01.618Z,18.00
2023-04-18T20:06:28.858Z,17.75
2023-04-18T20:08:55.900Z,17.00
2023-04-18T20:11:23.070Z,13.50
2023-04-18T20:13:52.502Z,14.50
2023-04-18T20:16:19.410Z,13.50
2023-04-18T20:18:47.558Z,20.00
2023-04-18T20:21:15.883Z,17.50
2023-04-18T20:23:42.979Z,13.00
2023-04-18T20:26:10.035Z,19.25
2023-04-18T20:28:38.053Z,12.00
2023-04-18T20:31:05.230Z,13.00
2023-04-18T20:33:33.151Z,10.00
2023-04-18T20:36:00.244Z,8.75
2023-04-18T20:38:29.777Z,9.25
2023-04-18T20:40:59.039Z,11.00
2023-04-18T20:43:26.383Z,15.75
2023-04-18T20:45:54.181Z,16.50
2023-04-18T20:48:21.600Z,13.00
2023-04-18T20:50:51.743Z,14.00
2023-04-18T20:53:26.288Z,11.00
2023-04-18T20:55:53.298Z,14.25
2023-04-18T20:58:20.232Z,17.00
2023-04-18T21:00:48.515Z,10.75
2023-04-18T21:03:16.955Z,6.50
2023-04-18T21:05:45.212Z,10.50
2023-04-18T21:08:12.258Z,12.00
2023-04-18T21:10:39.986Z,10.75
2023-04-18T21:13:07.382Z,7.00
2023-04-18T21:15:36.048Z,15.00
2023-04-18T21:18:03.139Z,12.00
2023-04-18T21:20:30.172Z,10.00
2023-04-18T21:22:57.066Z,9.00
2023-04-18T21:25:24.066Z,12.00
2023-04-18T21:27:51.027Z,11.00
2023-04-18T21:30:18.225Z,10.00
2023-04-18T21:32:47.389Z,9.50
2023-04-18T21:35:15.306Z,10.50
2023-04-18T21:37:43.347Z,8.25
2023-04-18T21:40:10.663Z,9.00
2023-04-18T21:42:37.602Z,8.00
2023-04-18T21:45:05.508Z,6.00
2023-04-18T21:47:33.112Z,10.75
2023-04-18T21:50:00.065Z,8.75
2023-04-18T21:52:27.088Z,6.25
2023-04-18T21:54:53.957Z,8.50
2023-04-18T21:57:20.956Z,8.25
2023-04-18T21:59:47.872Z,8.00
2023-04-18T22:02:14.904Z,8.75
2023-04-18T22:04:42.987Z,4.50
2023-04-18T22:07:11.591Z,9.00
2023-04-18T22:09:38.837Z,6.50
2023-04-18T22:12:05.956Z,7.75
2023-04-18T22:14:32.819Z,9.00
2023-04-18T22:17:04.975Z,5.50
2023-04-18T22:19:31.897Z,5.25
2023-04-18T22:21:59.151Z,6.00
2023-04-18T22:24:26.254Z,4.00
2023-04-18T22:26:53.832Z,8.50
2023-04-18T22:29:20.732Z,9.75
2023-04-18T22:31:47.679Z,4.75
2023-04-18T22:34:15.002Z,7.25
2023-04-18T22:36:44.118Z,15.25
2023-04-18T22:39:12.341Z,12.50
2023-04-18T22:41:39.297Z,12.75
2023-04-18T22:44:06.185Z,11.75
2023-04-18T22:46:33.294Z,12.00
2023-04-18T22:49:00.868Z,2.00
2023-04-18T22:51:28.985Z,8.00
2023-04-18T22:53:56.499Z,6.00
2023-04-18T22:56:23.581Z,6.25
2023-04-18T22:58:50.452Z,6.25
2023-04-18T23:01:17.455Z,5.50
2023-04-18T23:03:44.565Z,4.25
2023-04-18T23:06:11.630Z,8.00
2023-04-18T23:08:38.633Z,6.75
2023-04-18T23:11:05.599Z,4.75
2023-04-18T23:13:32.523Z,3.00
2023-04-18T23:15:59.497Z,4.00
2023-04-18T23:18:29.293Z,5.75
2023-04-18T23:20:56.170Z,5.00
2023-04-18T23:23:23.095Z,3.75
2023-04-18T23:25:50.002Z,5.00
2023-04-18T23:28:17.290Z,8.00
2023-04-18T23:30:44.390Z,3.50
2023-04-18T23:33:11.353Z,5.00
2023-04-18T23:35:38.298Z,4.00
2023-04-18T23:38:05.219Z,7.75
2023-04-18T23:40:32.116Z,10.00
2023-04-18T23:42:59.297Z,12.00
2023-04-18T23:45:26.390Z,12.00
2023-04-18T23:47:53.387Z,14.25
2023-04-18T23:50:20.730Z,17.00
2023-04-18T23:52:47.645Z,19.75
2023-04-18T23:55:14.554Z,22.00
2023-04-18T23:57:41.518Z,15.75
